sensor_id;sensor_type;location;lat;lon;timestamp;P1;P4;P2;P0;N10;N4;N25;N1;N05;TS
43196;SPS30;28816;49.852;18.282;2024-01-15T00:03:56;10.040000;;9.960000;9.080000;;;;;;
43196;SPS30;28816;49.852;18.282;2024-01-15T00:08:59;9.820000;;9.620000;8.730000;;;;;;
43196;SPS30;28816;49.852;18.282;2024-01-15T00:14:01;9.460000;;9.300000;8.600000;;;;;;
43196;SPS30;28816;49.852;18.282;2024-01-15T00:19:03;9.180000;;9.030000;8.510000;;;;;;
43196;SPS30;28816;49.852;18.282;2024-01-15T00:24:05;10.030000;;9.950000;9.120000;;;;;;
43196;SPS30;28816;49.852;18.282;2024-01-15T00:29:07;9.210000;;8.950000;8.520000;;;;;;
43196;SPS30;28816;49.852;18.282;2024-01-15T00:34:10;8.970000;;8.860000;8.200000;;;;;;
43196;SPS30;28816;49.852;18.282;2024-01-15T00:39:12;9.190000;;9.080000;8.360000;;;;;;
43196;SPS30;28816;49.852;18.282;2024-01-15T00:44:14;9.030000;;9.020000;8.360000;;;;;;
43196;SPS30;28816;49.852;18.282;2024-01-15T00:49:16;9.240000;;9.050000;8.510000;;;;;;
43196;SPS30;28816;49.852;18.282;2024-01-15T00:54:18;8.270000;;8.250000;7.660000;;;;;;
43196;SPS30;28816;49.852;18.282;2024-01-15T00:59:21;9.190000;;9.030000;8.420000;;;;;;
43196;SPS30;28816;49.852;18.282;2024-01-15T01:04:23;9.480000;;9.280000;8.220000;;;;;;
43196;SPS30;28816;49.852;18.282;2024-01-15T01:09:25;9.410000;;9.170000;8.570000;;;;;;
43196;SPS30;28816;49.852;18.282;2024-01-15T01:14:27;8.900000;;8.760000;8.020000;;;;;;
43196;SPS30;28816;49.852;18.282;2024-01-15T01:19:29;9.820000;;9.570000;8.890000;;;;;;
43196;SPS30;28816;49.852;18.282;2024-01-15T01:24:31;9.080000;;9.080000;8.480000;;;;;;
43196;SPS30;28816;49.852;18.282;2024-01-15T01:29:34;8.600000;;8.450000;7.940000;;;;;;
43196;SPS30;28816;49.852;18.282;2024-01-15T01:34:35;9.090000;;8.860000;8.170000;;;;;;
43196;SPS30;28816;49.852;18.282;2024-01-15T01:39:39;9.550000;;9.340000;8.510000;;;;;;
43196;SPS30;28816;49.852;18.282;2024-01-15T01:44:42;8.130000;;7.930000;7.240000;;;;;;
43196;SPS30;28816;49.852;18.282;2024-01-15T01:49:44;8.040000;;7.850000;7.420000;;;;;;
43196;SPS30;28816;49.852;18.282;2024-01-15T01:54:46;8.960000;;8.720000;8.150000;;;;;;
43196;SPS30;28816;49.852;18.282;2024-01-15T01:59:48;8.230000;;8.000000;7.350000;;;;;;
43196;SPS30;28816;49.852;18.282;2024-01-15T02:04:50;7.630000;;7.370000;6.980000;;;;;;
43196;SPS30;28816;49.852;18.282;2024-01-15T02:09:52;8.220000;;8.100000;7.560000;;;;;;
43196;SPS30;28816;49.852;18.282;2024-01-15T02:14:54;8.070000;;7.950000;7.440000;;;;;;
43196;SPS30;28816;49.852;18.282;2024-01-15T02:19:56;7.030000;;6.980000;6.460000;;;;;;
43196;SPS30;28816;49.852;18.282;2024-01-15T02:24:58;8.130000;;7.930000;7.210000;;;;;;
43196;SPS30;28816;49.852;18.282;2024-01-15T02:30:00;7.170000;;7.070000;6.640000;;;;;;
43196;SPS30;28816;49.852;18.282;2024-01-15T02:35:02;8.760000;;8.640000;7.660000;;;;;;
43196;SPS30;28816;49.852;18.282;2024-01-15T02:40:04;7.270000;;7.170000;6.700000;;;;;;
43196;SPS30;28816;49.852;18.282;2024-01-15T02:45:07;8.340000;;8.170000;7.470000;;;;;;
43196;SPS30;28816;49.852;18.282;2024-01-15T02:50:10;7.250000;;7.130000;6.660000;;;;;;
43196;SPS30;28816;49.852;18.282;2024-01-15T02:55:12;8.390000;;8.190000;7.590000;;;;;;
43196;SPS30;28816;49.852;18.282;2024-01-15T03:00:14;6.860000;;6.740000;6.320000;;;;;;
43196;SPS30;28816;49.852;18.282;2024-01-15T03:05:16;6.810000;;6.690000;6.110000;;;;;;
43196;SPS30;28816;49.852;18.282;2024-01-15T03:10:18;7.770000;;7.740000;7.150000;;;;;;
43196;SPS30;28816;49.852;18.282;2024-01-15T03:15:20;7.710000;;7.720000;7.020000;;;;;;
43196;SPS30;28816;49.852;18.282;2024-01-15T03:20:22;8.150000;;7.960000;7.360000;;;;;;
43196;SPS30;28816;49.852;18.282;2024-01-15T03:25:24;7.620000;;7.460000;6.850000;;;;;;
43196;SPS30;28816;49.852;18.282;2024-01-15T03:30:26;8.860000;;8.620000;7.920000;;;;;;
43196;SPS30;28816;49.852;18.282;2024-01-15T03:35:28;7.820000;;7.720000;7.190000;;;;;;
43196;SPS30;28816;49.852;18.282;2024-01-15T03:40:30;7.460000;;7.320000;6.990000;;;;;;
43196;SPS30;28816;49.852;18.282;2024-01-15T03:45:32;9.280000;;9.130000;8.480000;;;;;;
43196;SPS30;28816;49.852;18.282;2024-01-15T03:50:34;8.380000;;8.090000;7.570000;;;;;;
43196;SPS30;28816;49.852;18.282;2024-01-15T03:55:36;8.080000;;7.820000;7.210000;;;;;;
43196;SPS30;28816;49.852;18.282;2024-01-15T04:00:38;8.050000;;7.980000;7.430000;;;;;;
43196;SPS30;28816;49.852;18.282;2024-01-15T04:05:40;8.230000;;8.170000;7.480000;;;;;;
43196;SPS30;28816;49.852;18.282;2024-01-15T04:10:43;9.300000;;9.250000;8.360000;;;;;;
43196;SPS30;28816;49.852;18.282;2024-01-15T04:15:45;9.350000;;9.160000;8.450000;;;;;;
43196;SPS30;28816;49.852;18.282;2024-01-15T04:20:47;9.350000;;9.220000;8.540000;;;;;;
43196;SPS30;28816;49.852;18.282;2024-01-15T04:25:49;9.010000;;8.930000;8.320000;;;;;;
43196;SPS30;28816;49.852;18.282;2024-01-15T04:30:52;9.690000;;9.520000;8.940000;;;;;;
43196;SPS30;28816;49.852;18.282;2024-01-15T04:35:54;9.180000;;9.010000;8.230000;;;;;;
43196;SPS30;28816;49.852;18.282;2024-01-15T04:40:56;9.540000;;9.330000;8.720000;;;;;;
43196;SPS30;28816;49.852;18.282;2024-01-15T04:45:58;9.190000;;8.910000;8.350000;;;;;;
43196;SPS30;28816;49.852;18.282;2024-01-15T04:51:00;8.360000;;8.190000;7.690000;;;;;;
43196;SPS30;28816;49.852;18.282;2024-01-15T04:56:04;8.600000;;8.510000;7.950000;;;;;;
43196;SPS30;28816;49.852;18.282;2024-01-15T05:01:06;10.300000;;10.100000;9.430000;;;;;;
43196;SPS30;28816;49.852;18.282;2024-01-15T05:06:08;9.610000;;9.320000;8.730000;;;;;;
43196;SPS30;28816;49.852;18.282;2024-01-15T05:11:11;8.810000;;8.730000;8.180000;;;;;;
43196;SPS30;28816;49.852;18.282;2024-01-15T05:16:13;9.260000;;9.050000;8.340000;;;;;;
43196;SPS30;28816;49.852;18.282;2024-01-15T05:21:16;10.090000;;9.920000;9.230000;;;;;;
43196;SPS30;28816;49.852;18.282;2024-01-15T05:26:18;9.570000;;9.570000;8.730000;;;;;;
43196;SPS30;28816;49.852;18.282;2024-01-15T05:31:20;11.670000;;11.390000;10.490000;;;;;;
43196;SPS30;28816;49.852;18.282;2024-01-15T05:36:22;11.730000;;11.600000;10.860000;;;;;;
43196;SPS30;28816;49.852;18.282;2024-01-15T05:41:25;10.650000;;10.480000;9.820000;;;;;;
43196;SPS30;28816;49.852;18.282;2024-01-15T05:46:27;10.490000;;10.190000;9.470000;;;;;;
43196;SPS30;28816;49.852;18.282;2024-01-15T05:51:29;10.650000;;10.250000;9.660000;;;;;;
43196;SPS30;28816;49.852;18.282;2024-01-15T05:56:31;11.850000;;11.650000;10.760000;;;;;;
43196;SPS30;28816;49.852;18.282;2024-01-15T06:01:34;9.810000;;9.790000;9.080000;;;;;;
43196;SPS30;28816;49.852;18.282;2024-01-15T06:06:36;10.050000;;9.820000;9.370000;;;;;;
43196;SPS30;28816;49.852;18.282;2024-01-15T06:11:38;9.590000;;9.450000;8.750000;;;;;;
43196;SPS30;28816;49.852;18.282;2024-01-15T06:16:40;9.430000;;9.300000;8.630000;;;;;;
43196;SPS30;28816;49.852;18.282;2024-01-15T06:21:43;10.440000;;10.340000;9.390000;;;;;;
43196;SPS30;28816;49.852;18.282;2024-01-15T06:26:45;10.680000;;10.470000;9.840000;;;;;;
43196;SPS30;28816;49.852;18.282;2024-01-15T06:31:47;10.690000;;10.390000;9.660000;;;;;;
43196;SPS30;28816;49.852;18.282;2024-01-15T06:36:50;11.240000;;11.040000;10.260000;;;;;;
43196;SPS30;28816;49.852;18.282;2024-01-15T06:41:52;12.540000;;12.260000;11.290000;;;;;;
43196;SPS30;28816;49.852;18.282;2024-01-15T06:46:54;12.050000;;11.700000;10.840000;;;;;;
43196;SPS30;28816;49.852;18.282;2024-01-15T06:51:57;11.950000;;11.670000;10.640000;;;;;;
43196;SPS30;28816;49.852;18.282;2024-01-15T06:56:59;10.690000;;10.550000;9.710000;;;;;;
43196;SPS30;28816;49.852;18.282;2024-01-15T07:02:02;10.730000;;10.440000;9.750000;;;;;;
43196;SPS30;28816;49.852;18.282;2024-01-15T07:07:04;15.690000;;15.360000;14.200000;;;;;;
43196;SPS30;28816;49.852;18.282;2024-01-15T07:12:06;11.940000;;11.600000;10.560000;;;;;;
43196;SPS30;28816;49.852;18.282;2024-01-15T07:17:09;12.120000;;11.730000;10.820000;;;;;;
43196;SPS30;28816;49.852;18.282;2024-01-15T07:22:11;12.000000;;11.900000;11.070000;;;;;;
43196;SPS30;28816;49.852;18.282;2024-01-15T07:27:14;11.890000;;11.710000;10.830000;;;;;;
43196;SPS30;28816;49.852;18.282;2024-01-15T07:32:16;10.810000;;10.690000;9.870000;;;;;;
43196;SPS30;28816;49.852;18.282;2024-01-15T07:37:18;12.160000;;11.960000;10.990000;;;;;;
43196;SPS30;28816;49.852;18.282;2024-01-15T07:42:21;12.300000;;12.120000;11.000000;;;;;;
43196;SPS30;28816;49.852;18.282;2024-01-15T07:47:23;11.320000;;11.090000;10.230000;;;;;;
43196;SPS30;28816;49.852;18.282;2024-01-15T07:52:25;11.310000;;11.270000;10.570000;;;;;;
43196;SPS30;28816;49.852;18.282;2024-01-15T07:57:28;11.910000;;11.600000;10.380000;;;;;;
43196;SPS30;28816;49.852;18.282;2024-01-15T08:02:30;12.730000;;12.510000;11.750000;;;;;;
43196;SPS30;28816;49.852;18.282;2024-01-15T08:07:32;12.370000;;12.060000;11.090000;;;;;;
43196;SPS30;28816;49.852;18.282;2024-01-15T08:12:34;11.700000;;11.510000;10.670000;;;;;;
43196;SPS30;28816;49.852;18.282;2024-01-15T08:17:37;12.440000;;12.430000;11.510000;;;;;;
43196;SPS30;28816;49.852;18.282;2024-01-15T08:22:39;12.920000;;12.700000;12.110000;;;;;;
43196;SPS30;28816;49.852;18.282;2024-01-15T08:27:41;13.250000;;13.040000;12.210000;;;;;;
43196;SPS30;28816;49.852;18.282;2024-01-15T08:32:44;13.180000;;12.950000;12.140000;;;;;;
43196;SPS30;28816;49.852;18.282;2024-01-15T08:37:46;12.150000;;12.030000;11.210000;;;;;;
43196;SPS30;28816;49.852;18.282;2024-01-15T08:42:49;12.340000;;12.210000;11.140000;;;;;;
43196;SPS30;28816;49.852;18.282;2024-01-15T08:47:50;12.770000;;12.470000;11.760000;;;;;;
43196;SPS30;28816;49.852;18.282;2024-01-15T08:52:53;12.910000;;12.740000;11.660000;;;;;;
43196;SPS30;28816;49.852;18.282;2024-01-15T08:57:55;12.350000;;12.110000;11.170000;;;;;;
43196;SPS30;28816;49.852;18.282;2024-01-15T09:02:57;14.390000;;14.110000;13.130000;;;;;;
43196;SPS30;28816;49.852;18.282;2024-01-15T09:07:59;14.110000;;13.860000;12.740000;;;;;;
43196;SPS30;28816;49.852;18.282;2024-01-15T09:13:02;14.820000;;14.510000;13.440000;;;;;;
43196;SPS30;28816;49.852;18.282;2024-01-15T09:18:04;14.810000;;14.410000;13.150000;;;;;;
43196;SPS30;28816;49.852;18.282;2024-01-15T09:23:06;15.050000;;14.520000;13.370000;;;;;;
43196;SPS30;28816;49.852;18.282;2024-01-15T09:28:08;15.770000;;15.410000;14.250000;;;;;;
43196;SPS30;28816;49.852;18.282;2024-01-15T09:33:10;15.730000;;15.320000;14.100000;;;;;;
43196;SPS30;28816;49.852;18.282;2024-01-15T09:38:12;15.330000;;15.030000;13.940000;;;;;;
43196;SPS30;28816;49.852;18.282;2024-01-15T09:43:14;14.290000;;14.140000;12.970000;;;;;;
43196;SPS30;28816;49.852;18.282;2024-01-15T09:48:17;12.230000;;11.960000;11.140000;;;;;;
43196;SPS30;28816;49.852;18.282;2024-01-15T09:53:19;13.630000;;13.470000;12.460000;;;;;;
43196;SPS30;28816;49.852;18.282;2024-01-15T09:58:23;14.500000;;14.150000;13.180000;;;;;;
43196;SPS30;28816;49.852;18.282;2024-01-15T10:03:25;14.070000;;13.880000;12.670000;;;;;;
43196;SPS30;28816;49.852;18.282;2024-01-15T10:08:27;14.350000;;14.200000;13.190000;;;;;;
43196;SPS30;28816;49.852;18.282;2024-01-15T10:13:29;14.220000;;14.000000;13.130000;;;;;;
43196;SPS30;28816;49.852;18.282;2024-01-15T10:18:31;13.490000;;13.390000;12.370000;;;;;;
43196;SPS30;28816;49.852;18.282;2024-01-15T10:23:32;14.920000;;14.670000;13.640000;;;;;;
43196;SPS30;28816;49.852;18.282;2024-01-15T10:28:35;13.390000;;13.220000;12.370000;;;;;;
43196;SPS30;28816;49.852;18.282;2024-01-15T10:33:36;15.050000;;14.720000;13.720000;;;;;;
43196;SPS30;28816;49.852;18.282;2024-01-15T10:38:38;15.960000;;15.730000;14.580000;;;;;;
43196;SPS30;28816;49.852;18.282;2024-01-15T10:43:41;15.150000;;14.840000;13.690000;;;;;;
43196;SPS30;28816;49.852;18.282;2024-01-15T10:48:43;16.160000;;16.050000;15.200000;;;;;;
43196;SPS30;28816;49.852;18.282;2024-01-15T10:53:46;15.630000;;15.250000;14.580000;;;;;;
43196;SPS30;28816;49.852;18.282;2024-01-15T10:58:47;16.920000;;16.640000;15.370000;;;;;;
43196;SPS30;28816;49.852;18.282;2024-01-15T11:03:50;18.330000;;18.090000;16.830000;;;;;;
43196;SPS30;28816;49.852;18.282;2024-01-15T11:08:54;15.860000;;15.690000;14.780000;;;;;;
43196;SPS30;28816;49.852;18.282;2024-01-15T11:13:56;16.890000;;16.630000;15.430000;;;;;;
43196;SPS30;28816;49.852;18.282;2024-01-15T11:18:58;19.360000;;18.810000;17.400000;;;;;;
43196;SPS30;28816;49.852;18.282;2024-01-15T11:24:02;16.620000;;16.260000;15.470000;;;;;;
43196;SPS30;28816;49.852;18.282;2024-01-15T11:29:04;16.900000;;16.570000;15.430000;;;;;;
43196;SPS30;28816;49.852;18.282;2024-01-15T11:34:07;16.010000;;15.940000;14.860000;;;;;;
43196;SPS30;28816;49.852;18.282;2024-01-15T11:39:10;16.690000;;16.390000;15.340000;;;;;;
43196;SPS30;28816;49.852;18.282;2024-01-15T11:44:39;17.440000;;17.250000;15.930000;;;;;;
43196;SPS30;28816;49.852;18.282;2024-01-15T11:49:41;14.590000;;14.120000;13.090000;;;;;;
43196;SPS30;28816;49.852;18.282;2024-01-15T11:55:00;15.440000;;15.090000;14.050000;;;;;;
43196;SPS30;28816;49.852;18.282;2024-01-15T12:00:10;16.210000;;15.850000;14.660000;;;;;;
43196;SPS30;28816;49.852;18.282;2024-01-15T12:05:12;15.820000;;15.730000;14.620000;;;;;;
43196;SPS30;28816;49.852;18.282;2024-01-15T12:10:16;17.120000;;16.730000;15.660000;;;;;;
43196;SPS30;28816;49.852;18.282;2024-01-15T12:15:19;14.680000;;14.440000;13.310000;;;;;;
43196;SPS30;28816;49.852;18.282;2024-01-15T12:20:21;15.750000;;15.550000;14.150000;;;;;;
43196;SPS30;28816;49.852;18.282;2024-01-15T12:25:24;14.910000;;14.580000;13.630000;;;;;;
43196;SPS30;28816;49.852;18.282;2024-01-15T12:30:27;13.340000;;13.090000;12.150000;;;;;;
43196;SPS30;28816;49.852;18.282;2024-01-15T12:35:30;12.980000;;12.720000;11.840000;;;;;;
43196;SPS30;28816;49.852;18.282;2024-01-15T12:40:33;11.580000;;11.430000;10.650000;;;;;;
43196;SPS30;28816;49.852;18.282;2024-01-15T12:45:35;11.760000;;11.660000;10.920000;;;;;;
43196;SPS30;28816;49.852;18.282;2024-01-15T12:50:37;11.660000;;11.500000;10.840000;;;;;;
43196;SPS30;28816;49.852;18.282;2024-01-15T12:55:42;11.490000;;11.300000;10.290000;;;;;;
43196;SPS30;28816;49.852;18.282;2024-01-15T13:00:44;11.940000;;11.980000;11.140000;;;;;;
43196;SPS30;28816;49.852;18.282;2024-01-15T13:05:46;11.840000;;11.730000;10.850000;;;;;;
43196;SPS30;28816;49.852;18.282;2024-01-15T13:10:48;14.910000;;14.750000;13.390000;;;;;;
43196;SPS30;28816;49.852;18.282;2024-01-15T13:15:50;14.950000;;14.460000;13.330000;;;;;;
43196;SPS30;28816;49.852;18.282;2024-01-15T13:20:53;16.530000;;16.000000;14.500000;;;;;;
43196;SPS30;28816;49.852;18.282;2024-01-15T13:25:55;13.810000;;13.460000;12.430000;;;;;;
43196;SPS30;28816;49.852;18.282;2024-01-15T13:30:57;15.240000;;14.900000;13.800000;;;;;;
43196;SPS30;28816;49.852;18.282;2024-01-15T13:36:00;11.130000;;10.880000;10.270000;;;;;;
43196;SPS30;28816;49.852;18.282;2024-01-15T13:41:02;11.300000;;11.090000;10.120000;;;;;;
43196;SPS30;28816;49.852;18.282;2024-01-15T13:46:04;10.910000;;10.710000;9.750000;;;;;;
43196;SPS30;28816;49.852;18.282;2024-01-15T13:51:06;10.880000;;10.670000;9.850000;;;;;;
43196;SPS30;28816;49.852;18.282;2024-01-15T13:56:09;10.370000;;10.250000;9.580000;;;;;;
43196;SPS30;28816;49.852;18.282;2024-01-15T14:01:11;9.660000;;9.600000;8.970000;;;;;;
43196;SPS30;28816;49.852;18.282;2024-01-15T14:06:13;13.390000;;13.280000;12.210000;;;;;;
43196;SPS30;28816;49.852;18.282;2024-01-15T14:11:15;11.610000;;11.360000;10.560000;;;;;;
43196;SPS30;28816;49.852;18.282;2024-01-15T14:16:18;13.820000;;13.540000;12.510000;;;;;;
43196;SPS30;28816;49.852;18.282;2024-01-15T14:21:20;11.570000;;11.340000;10.800000;;;;;;
43196;SPS30;28816;49.852;18.282;2024-01-15T14:26:22;11.410000;;11.210000;10.310000;;;;;;
43196;SPS30;28816;49.852;18.282;2024-01-15T14:31:24;9.670000;;9.520000;8.910000;;;;;;
43196;SPS30;28816;49.852;18.282;2024-01-15T14:36:26;10.480000;;10.150000;9.450000;;;;;;
43196;SPS30;28816;49.852;18.282;2024-01-15T14:41:28;9.460000;;9.270000;8.600000;;;;;;
43196;SPS30;28816;49.852;18.282;2024-01-15T14:46:30;9.840000;;9.800000;9.130000;;;;;;
43196;SPS30;28816;49.852;18.282;2024-01-15T14:51:32;10.040000;;9.930000;9.040000;;;;;;
43196;SPS30;28816;49.852;18.282;2024-01-15T14:56:35;10.240000;;9.980000;9.390000;;;;;;
43196;SPS30;28816;49.852;18.282;2024-01-15T15:01:38;9.090000;;8.880000;8.420000;;;;;;
43196;SPS30;28816;49.852;18.282;2024-01-15T15:06:40;9.570000;;9.460000;8.880000;;;;;;
43196;SPS30;28816;49.852;18.282;2024-01-15T15:11:42;9.070000;;8.950000;8.350000;;;;;;
43196;SPS30;28816;49.852;18.282;2024-01-15T15:16:44;8.950000;;8.850000;8.200000;;;;;;
43196;SPS30;28816;49.852;18.282;2024-01-15T15:21:46;9.150000;;9.090000;8.480000;;;;;;
43196;SPS30;28816;49.852;18.282;2024-01-15T15:26:49;9.900000;;9.760000;8.990000;;;;;;
43196;SPS30;28816;49.852;18.282;2024-01-15T15:31:51;11.090000;;10.730000;9.940000;;;;;;
43196;SPS30;28816;49.852;18.282;2024-01-15T15:36:53;11.330000;;11.240000;10.300000;;;;;;
43196;SPS30;28816;49.852;18.282;2024-01-15T15:41:55;11.540000;;11.320000;10.620000;;;;;;
43196;SPS30;28816;49.852;18.282;2024-01-15T15:46:58;9.690000;;9.350000;8.510000;;;;;;
43196;SPS30;28816;49.852;18.282;2024-01-15T15:52:00;9.110000;;8.950000;8.380000;;;;;;
43196;SPS30;28816;49.852;18.282;2024-01-15T15:57:02;8.560000;;8.590000;8.090000;;;;;;
43196;SPS30;28816;49.852;18.282;2024-01-15T16:02:05;8.180000;;8.060000;7.500000;;;;;;
43196;SPS30;28816;49.852;18.282;2024-01-15T16:07:06;8.670000;;8.470000;7.930000;;;;;;
43196;SPS30;28816;49.852;18.282;2024-01-15T16:12:09;8.300000;;8.260000;7.490000;;;;;;
43196;SPS30;28816;49.852;18.282;2024-01-15T16:17:11;8.330000;;8.270000;7.670000;;;;;;
43196;SPS30;28816;49.852;18.282;2024-01-15T16:22:13;11.320000;;11.180000;10.520000;;;;;;
43196;SPS30;28816;49.852;18.282;2024-01-15T16:27:16;9.340000;;9.280000;8.570000;;;;;;
43196;SPS30;28816;49.852;18.282;2024-01-15T16:32:18;10.530000;;10.400000;9.860000;;;;;;
43196;SPS30;28816;49.852;18.282;2024-01-15T16:37:20;9.840000;;9.690000;9.030000;;;;;;
43196;SPS30;28816;49.852;18.282;2024-01-15T16:42:22;8.730000;;8.640000;8.080000;;;;;;
43196;SPS30;28816;49.852;18.282;2024-01-15T16:47:24;8.540000;;8.480000;7.940000;;;;;;
43196;SPS30;28816;49.852;18.282;2024-01-15T16:52:27;8.850000;;8.760000;7.990000;;;;;;
43196;SPS30;28816;49.852;18.282;2024-01-15T16:57:29;8.000000;;7.880000;7.370000;;;;;;
43196;SPS30;28816;49.852;18.282;2024-01-15T17:02:31;8.390000;;8.180000;7.670000;;;;;;
43196;SPS30;28816;49.852;18.282;2024-01-15T17:07:33;8.920000;;8.790000;8.310000;;;;;;
43196;SPS30;28816;49.852;18.282;2024-01-15T17:12:35;9.510000;;9.360000;8.580000;;;;;;
43196;SPS30;28816;49.852;18.282;2024-01-15T17:17:37;10.190000;;10.090000;9.460000;;;;;;
43196;SPS30;28816;49.852;18.282;2024-01-15T17:22:39;10.170000;;10.000000;9.400000;;;;;;
43196;SPS30;28816;49.852;18.282;2024-01-15T17:27:41;11.000000;;10.890000;10.440000;;;;;;
43196;SPS30;28816;49.852;18.282;2024-01-15T17:32:44;9.610000;;9.480000;9.000000;;;;;;
43196;SPS30;28816;49.852;18.282;2024-01-15T17:37:46;8.870000;;8.730000;8.270000;;;;;;
43196;SPS30;28816;49.852;18.282;2024-01-15T17:42:48;11.290000;;11.150000;10.610000;;;;;;
43196;SPS30;28816;49.852;18.282;2024-01-15T17:47:50;9.340000;;9.190000;8.460000;;;;;;
43196;SPS30;28816;49.852;18.282;2024-01-15T17:52:52;11.420000;;11.320000;10.740000;;;;;;
43196;SPS30;28816;49.852;18.282;2024-01-15T17:57:54;11.650000;;11.630000;10.920000;;;;;;
43196;SPS30;28816;49.852;18.282;2024-01-15T18:02:57;11.460000;;11.340000;10.500000;;;;;;
43196;SPS30;28816;49.852;18.282;2024-01-15T18:07:59;11.140000;;11.090000;10.370000;;;;;;
43196;SPS30;28816;49.852;18.282;2024-01-15T18:13:01;10.100000;;9.980000;9.410000;;;;;;
43196;SPS30;28816;49.852;18.282;2024-01-15T18:18:03;9.920000;;9.770000;9.340000;;;;;;
43196;SPS30;28816;49.852;18.282;2024-01-15T18:23:06;9.020000;;8.890000;8.370000;;;;;;
43196;SPS30;28816;49.852;18.282;2024-01-15T18:28:08;10.130000;;10.100000;9.480000;;;;;;
43196;SPS30;28816;49.852;18.282;2024-01-15T18:33:10;10.490000;;10.240000;9.580000;;;;;;
43196;SPS30;28816;49.852;18.282;2024-01-15T18:38:12;8.900000;;8.900000;8.220000;;;;;;
43196;SPS30;28816;49.852;18.282;2024-01-15T18:43:14;10.680000;;10.530000;9.750000;;;;;;
43196;SPS30;28816;49.852;18.282;2024-01-15T18:48:17;10.500000;;10.310000;9.770000;;;;;;
43196;SPS30;28816;49.852;18.282;2024-01-15T18:53:19;11.620000;;11.370000;10.670000;;;;;;
43196;SPS30;28816;49.852;18.282;2024-01-15T18:58:21;11.160000;;10.930000;10.390000;;;;;;
43196;SPS30;28816;49.852;18.282;2024-01-15T19:03:24;11.080000;;10.950000;10.390000;;;;;;
43196;SPS30;28816;49.852;18.282;2024-01-15T19:08:26;12.060000;;11.850000;11.030000;;;;;;
43196;SPS30;28816;49.852;18.282;2024-01-15T19:13:28;12.240000;;12.020000;11.240000;;;;;;
43196;SPS30;28816;49.852;18.282;2024-01-15T19:18:30;11.640000;;11.510000;11.050000;;;;;;
43196;SPS30;28816;49.852;18.282;2024-01-15T19:23:32;11.010000;;10.910000;10.290000;;;;;;
43196;SPS30;28816;49.852;18.282;2024-01-15T19:28:34;12.360000;;12.240000;11.320000;;;;;;
43196;SPS30;28816;49.852;18.282;2024-01-15T19:33:37;10.720000;;10.710000;10.030000;;;;;;
43196;SPS30;28816;49.852;18.282;2024-01-15T19:38:39;11.750000;;11.740000;10.940000;;;;;;
43196;SPS30;28816;49.852;18.282;2024-01-15T19:43:41;11.180000;;11.080000;10.380000;;;;;;
43196;SPS30;28816;49.852;18.282;2024-01-15T19:48:44;10.370000;;10.330000;9.560000;;;;;;
43196;SPS30;28816;49.852;18.282;2024-01-15T19:53:47;10.180000;;10.080000;9.390000;;;;;;
43196;SPS30;28816;49.852;18.282;2024-01-15T19:58:49;9.380000;;9.380000;8.760000;;;;;;
43196;SPS30;28816;49.852;18.282;2024-01-15T20:03:51;8.230000;;8.190000;7.650000;;;;;;
43196;SPS30;28816;49.852;18.282;2024-01-15T20:08:53;8.730000;;8.710000;8.140000;;;;;;
43196;SPS30;28816;49.852;18.282;2024-01-15T20:13:55;8.600000;;8.520000;7.960000;;;;;;
43196;SPS30;28816;49.852;18.282;2024-01-15T20:18:58;8.330000;;8.300000;7.770000;;;;;;
43196;SPS30;28816;49.852;18.282;2024-01-15T20:24:00;8.270000;;8.240000;7.760000;;;;;;
43196;SPS30;28816;49.852;18.282;2024-01-15T20:29:03;8.790000;;8.740000;8.170000;;;;;;
43196;SPS30;28816;49.852;18.282;2024-01-15T20:34:08;8.450000;;8.290000;7.930000;;;;;;
43196;SPS30;28816;49.852;18.282;2024-01-15T20:39:11;8.120000;;7.990000;7.660000;;;;;;
43196;SPS30;28816;49.852;18.282;2024-01-15T20:44:12;8.030000;;7.970000;7.450000;;;;;;
43196;SPS30;28816;49.852;18.282;2024-01-15T20:49:15;8.520000;;8.430000;7.940000;;;;;;
43196;SPS30;28816;49.852;18.282;2024-01-15T20:54:17;9.010000;;8.870000;8.280000;;;;;;
43196;SPS30;28816;49.852;18.282;2024-01-15T20:59:19;8.790000;;8.740000;8.210000;;;;;;
43196;SPS30;28816;49.852;18.282;2024-01-15T21:04:21;8.890000;;8.760000;8.330000;;;;;;
43196;SPS30;28816;49.852;18.282;2024-01-15T21:09:23;8.460000;;8.380000;7.890000;;;;;;
43196;SPS30;28816;49.852;18.282;2024-01-15T21:14:25;8.760000;;8.760000;8.130000;;;;;;
43196;SPS30;28816;49.852;18.282;2024-01-15T21:19:27;8.740000;;8.660000;8.040000;;;;;;
43196;SPS30;28816;49.852;18.282;2024-01-15T21:24:30;7.750000;;7.720000;7.250000;;;;;;
43196;SPS30;28816;49.852;18.282;2024-01-15T21:29:32;8.840000;;8.770000;8.300000;;;;;;
43196;SPS30;28816;49.852;18.282;2024-01-15T21:34:34;9.370000;;9.310000;8.610000;;;;;;
43196;SPS30;28816;49.852;18.282;2024-01-15T21:39:36;9.310000;;9.300000;8.770000;;;;;;
43196;SPS30;28816;49.852;18.282;2024-01-15T21:44:38;8.730000;;8.610000;8.150000;;;;;;
43196;SPS30;28816;49.852;18.282;2024-01-15T21:49:40;8.900000;;8.920000;8.360000;;;;;;
43196;SPS30;28816;49.852;18.282;2024-01-15T21:54:42;7.570000;;7.510000;7.110000;;;;;;
43196;SPS30;28816;49.852;18.282;2024-01-15T21:59:44;7.430000;;7.380000;7.050000;;;;;;
43196;SPS30;28816;49.852;18.282;2024-01-15T22:04:47;8.880000;;8.850000;8.160000;;;;;;
43196;SPS30;28816;49.852;18.282;2024-01-15T22:09:49;8.310000;;8.110000;7.590000;;;;;;
43196;SPS30;28816;49.852;18.282;2024-01-15T22:14:51;8.130000;;8.030000;7.560000;;;;;;
43196;SPS30;28816;49.852;18.282;2024-01-15T22:19:53;7.860000;;7.870000;7.340000;;;;;;
43196;SPS30;28816;49.852;18.282;2024-01-15T22:24:55;8.990000;;8.960000;8.430000;;;;;;
43196;SPS30;28816;49.852;18.282;2024-01-15T22:29:57;7.730000;;7.750000;7.250000;;;;;;
43196;SPS30;28816;49.852;18.282;2024-01-15T22:35:00;8.810000;;8.740000;8.370000;;;;;;
43196;SPS30;28816;49.852;18.282;2024-01-15T22:40:02;7.490000;;7.540000;7.040000;;;;;;
43196;SPS30;28816;49.852;18.282;2024-01-15T22:45:05;8.020000;;7.990000;7.510000;;;;;;
43196;SPS30;28816;49.852;18.282;2024-01-15T22:50:07;8.710000;;8.670000;8.090000;;;;;;
43196;SPS30;28816;49.852;18.282;2024-01-15T22:55:10;8.220000;;8.200000;7.770000;;;;;;